This is the latest recevied weather packets stored in our database for station/object WA2TQI. If no packets are shown the sender has not sent any weather packets the latest 1 day(s).
| Time | Temp. | Humidity | Pressure | Rain* | Wind** | Luminosity | Snow |
|---|---|---|---|---|---|---|---|
| 1778013236 | 28.33° C | 39% | 1009.6 hPa | 0 mm | 0.89 m/s, 155° | - | - |
| 1778012933 | 28.33° C | 39% | 1009.7 hPa | 0 mm | 0.89 m/s, 26° | - | - |
| 1778012629 | 28.33° C | 42% | 1009.4 hPa | 0 mm | 1.79 m/s, 192° | - | - |
| 1778012326 | 28.33° C | 44% | 1009.5 hPa | 0 mm | 2.68 m/s, 153° | - | - |
| 1778012023 | 28.89° C | 44% | 1009.6 hPa | 0 mm | 3.58 m/s, 149° | - | - |
| 1778011722 | 28.89° C | 43% | 1009.7 hPa | 0 mm | 1.34 m/s, 165° | - | - |
| 1778011418 | 28.33° C | 45% | 1009.6 hPa | 0 mm | 1.79 m/s, 161° | - | - |
| 1778011113 | 28.33° C | 45% | 1009.7 hPa | 0 mm | 7.15 m/s, 191° | - | - |
| 1778010811 | 28.89° C | 45% | 1009.6 hPa | 0 mm | 3.58 m/s, 177° | - | - |
| 1778010508 | 28.89° C | 46% | 1009.8 hPa | 0 mm | 0.89 m/s, 103° | - | - |
| 1778010205 | 28.33° C | 45% | 1009.7 hPa | 0 mm | 2.68 m/s, 50° | - | - |
| 1778009900 | 28.33° C | 46% | 1010 hPa | 0 mm | 3.13 m/s, 226° | - | - |
| 1778009598 | 29.44° C | 45% | 1010 hPa | 0 mm | 2.68 m/s, 180° | - | - |
| 1778009296 | 28.89° C | 45% | 1010.1 hPa | 0 mm | 1.79 m/s, 170° | - | - |
| 1778008994 | 28.33° C | 44% | 1010.1 hPa | 0 mm | 0.89 m/s, 121° | - | - |
| 1778008691 | 29.44° C | 45% | 1010.1 hPa | 0 mm | 0.45 m/s, 291° | - | - |
| 1778008390 | 29.44° C | 43% | 1010.1 hPa | 0 mm | 3.13 m/s, 196° | - | - |
| 1778008086 | 28.89° C | 46% | 1010.2 hPa | 0 mm | 0.45 m/s, 263° | - | - |
| 1778007781 | 29.44° C | 46% | 1010.2 hPa | 0 mm | 0.45 m/s, 306° | - | - |
| 1778007478 | 29.44° C | 45% | 1010.3 hPa | 0 mm | 1.79 m/s, 234° | - | - |
| 1778007174 | 28.89° C | 49% | 1010.4 hPa | 0 mm | 1.79 m/s, 274° | - | - |
| 1778006870 | 28.33° C | 48% | 1010.5 hPa | 0 mm | 2.24 m/s, 255° | - | - |
| 1778006568 | 28.33° C | 48% | 1010.6 hPa | 0 mm | 3.58 m/s, 148° | - | - |
| 1778006264 | 28.89° C | 47% | 1010.6 hPa | 0 mm | 0.45 m/s, 173° | - | - |
| 1778005961 | 28.33° C | 48% | 1010.8 hPa | 0 mm | 0 m/s | - | - |
* Rain latest hour (hover to see other rain measurements)
** Current wind speed in m/s (hover to see current wind gust speed)